Stelios Filiagos — SVA3636 — position and weather

sailwx.info

Track history (hours):
 
Tides and Currents Weather Stations Pressure Air Temp Water Temp Dewpoint Dewpoint Depression Visibility Wind Speed Wind Dir Waves Ship Positions

Stelios Filiagos

Last reported at 2018-May-21 06:30 UTC. Time now 2018-May-21 06:50 UTC.
Position N 40°47' E 024°42'.

Length 106 m; draft 2.6 m.

Type: Passenger vessel. MMSI: 239630600.

Date/timePositionNaut miles runAvg speedWind from/ knotsBaromVisibWave heightAir tempDewpointWater temp
2018-May-21 06:30N 40°47' E 024°42'3 7.0
2018-May-21 06:00N 40°50' E 024°41'1 2.8
2018-May-21 05:30N 40°51' E 024°42'1 1.9
2018-May-21 05:00N 40°51' E 024°41'4 8.9
2018-May-21 04:30N 40°47' E 024°42'0 0.0
2018-May-21 04:00N 40°47' E 024°42'0 0.0
2018-May-21 03:30N 40°47' E 024°42'0 0.0
2018-May-21 03:00N 40°47' E 024°42'4 7.7
2018-May-21 02:30N 40°51' E 024°41'1 2.5
2018-May-21 02:00N 40°51' E 024°42'4 0.3
2018-May-20 11:38N 40°47' E 024°42'0 1.3
2018-May-20 11:30N 40°47' E 024°42'4 7.1
2018-May-20 11:01N 40°50' E 024°41'1 2.9
2018-May-20 10:31N 40°51' E 024°42'1 2.2
2018-May-20 10:00N 40°51' E 024°41'4 8.5
2018-May-20 09:30N 40°47' E 024°42'0 0.0
2018-May-20 09:01N 40°47' E 024°42'1 2.5
2018-May-20 08:31N 40°48' E 024°42'3 6.9
2018-May-20 08:00N 40°51' E 024°42'2 3.2
2018-May-20 07:31N 40°50' E 024°41'2 4.9
2018-May-20 07:00N 40°48' E 024°42'4 7.7
2018-May-20 06:30N 40°51' E 024°42'0 0.0
2018-May-20 06:00N 40°51' E 024°42'3 5.7
2018-May-20 05:30N 40°49' E 024°41'2 4.0
2018-May-20 05:01N 40°47' E 024°42'0 0.0
2018-May-20 04:22N 40°47' E 024°42'0 0.0
2018-May-20 03:57N 40°47' E 024°42'2 4.6
2018-May-20 03:30N 40°49' E 024°41'3 5.6
2018-May-20 03:00N 40°51' E 024°42'0 0.0
2018-May-19 18:55N 40°51' E 024°42'0 0.0
2018-May-19 18:30N 40°51' E 024°42'0 0.0
2018-May-19 18:00N 40°51' E 024°42'0 0.0
2018-May-19 17:30N 40°51' E 024°42'0 0.0
2018-May-19 17:00N 40°51' E 024°42'3 5.7
2018-May-19 16:30N 40°49' E 024°42'2 3.9
2018-May-19 16:00N 40°47' E 024°42'0 0.0
2018-May-19 15:30N 40°47' E 024°42'2 3.2
2018-May-19 15:00N 40°48' E 024°42'3 6.1
2018-May-19 14:29N 40°51' E 024°42'0 0.0
2018-May-19 13:58N 40°51' E 024°42'3 6.0
2018-May-19 13:30N 40°49' E 024°41'2 3.9
2018-May-19 13:00N 40°47' E 024°42'0 0.0
2018-May-19 12:30N 40°47' E 024°42'0 0.0
2018-May-19 12:00N 40°47' E 024°42'0 0.0
2018-May-19 11:30N 40°47' E 024°42'0 0.0
2018-May-19 11:00N 40°47' E 024°42'0 0.0
2018-May-19 10:30N 40°47' E 024°42'0 0.0
2018-May-19 10:00N 40°47' E 024°42'0 0.0
2018-May-19 09:30N 40°47' E 024°42'2 3.4
2018-May-19 09:00N 40°48' E 024°41'3 6.1
2018-May-19 08:30N 40°51' E 024°42'0 0.0
2018-May-19 08:00N 40°51' E 024°42'3 5.5
2018-May-19 07:30N 40°49' E 024°41'2 4.1
2018-May-19 07:00N 40°47' E 024°42'0 0.0
2018-May-19 06:30N 40°47' E 024°42'0 0.0
2018-May-19 05:59N 40°47' E 024°42'2 3.1
2018-May-19 05:30N 40°48' E 024°41'3 6.5
2018-May-19 05:00N 40°51' E 024°42'0 0.0
2018-May-19 04:30N 40°51' E 024°42'3 5.5
2018-May-19 04:00N 40°49' E 024°42'2 0.2
2018-May-18 17:50N 40°47' E 024°42'1 4.6
2018-May-18 17:31N 40°48' E 024°42'3 6.3
2018-May-18 17:00N 40°51' E 024°42'0 0.0
2018-May-18 16:31N 40°51' E 024°42'1 2.1
2018-May-18 16:00N 40°51' E 024°41'4 8.6
2018-May-18 15:31N 40°47' E 024°42'0 0.0
2018-May-18 15:01N 40°47' E 024°42'0 0.0
2018-May-18 14:30N 40°47' E 024°42'0 0.0
2018-May-18 14:01N 40°47' E 024°42'1 2.9
2018-May-18 13:30N 40°48' E 024°42'3 6.4
2018-May-18 13:00N 40°51' E 024°42'0 0.0
2018-May-18 12:30N 40°51' E 024°42'3 5.1
2018-May-18 12:00N 40°49' E 024°41'2 4.4
2018-May-18 11:31N 40°47' E 024°42'0 0.0
2018-May-18 11:01N 40°47' E 024°42'2 3.1
2018-May-18 10:31N 40°48' E 024°41'3 6.5
2018-May-18 10:01N 40°51' E 024°42'0 0.0
2018-May-18 09:30N 40°51' E 024°42'3 5.3
2018-May-18 09:00N 40°49' E 024°42'2 4.2
2018-May-18 08:31N 40°47' E 024°42'2 3.2
2018-May-18 08:00N 40°48' E 024°42'3 6.3
2018-May-18 07:30N 40°51' E 024°42'0 0.0
2018-May-18 07:01N 40°51' E 024°42'3 5.9
2018-May-18 06:30N 40°49' E 024°42'2 3.5
2018-May-18 06:01N 40°47' E 024°42'0 0.0
2018-May-18 05:31N 40°47' E 024°42'0 0.0
2018-May-18 05:01N 40°47' E 024°42'0 0.0
2018-May-18 04:30N 40°47' E 024°42'4 7.1
2018-May-18 04:00N 40°50' E 024°41'1 2.8
2018-May-18 03:30N 40°51' E 024°42'1 1.8
2018-May-18 03:01N 40°51' E 024°41'4 0.4
2018-May-17 16:08N 40°47' E 024°42'0 0.0
2018-May-17 16:00N 40°47' E 024°42'4 7.7
2018-May-17 15:30N 40°51' E 024°41'1 2.5
2018-May-17 15:00N 40°51' E 024°42'1 2.0
2018-May-17 14:30N 40°51' E 024°41'5 9.1
2018-May-17 14:00N 40°47' E 024°42'0 0.0
2018-May-17 13:30N 40°47' E 024°42'0 0.0
2018-May-17 13:00N 40°47' E 024°42'4 7.2
2018-May-17 12:30N 40°50' E 024°41'1 2.8
2018-May-17 12:00N 40°51' E 024°42'1 1.9
2018-May-17 11:30N 40°51' E 024°41'4 8.6
2018-May-17 11:00N 40°47' E 024°42'0 0.0
2018-May-17 10:29N 40°47' E 024°42'0 0.0
2018-May-17 10:00N 40°47' E 024°42'0 0.0
2018-May-17 09:30N 40°47' E 024°42'0 0.0
2018-May-17 09:00N 40°47' E 024°42'0 0.0
2018-May-17 08:30N 40°47' E 024°42'0 0.0
2018-May-17 08:00N 40°47' E 024°42'0 0.0
2018-May-17 07:30N 40°47' E 024°42'0 0.0
2018-May-17 07:00N 40°47' E 024°42'0 0.0
2018-May-17 06:30N 40°47' E 024°42'4 7.4
2018-May-17 06:00N 40°50' E 024°41'1 2.6
2018-May-17 05:30N 40°51' E 024°42'1 1.8
2018-May-17 05:00N 40°51' E 024°41'4 8.8
2018-May-17 04:30N 40°47' E 024°42'0 0.5
2018-May-17 04:00N 40°47' E 024°43'0 0.0
2018-May-16 11:54N 40°47' E 024°43'0 0.6
2018-May-16 11:30N 40°47' E 024°42'4 7.5
2018-May-16 11:00N 40°50' E 024°41'1 2.6
2018-May-16 10:31N 40°51' E 024°42'1 1.9
2018-May-16 10:01N 40°51' E 024°41'4 8.5
2018-May-16 09:30N 40°47' E 024°42'2 3.2
2018-May-16 09:00N 40°48' E 024°42'3 6.5
2018-May-16 08:30N 40°52' E 024°42'5 9.6
2018-May-16 08:00N 40°47' E 024°42'0 0.0
2018-May-16 07:30N 40°47' E 024°42'1 2.7
2018-May-16 07:00N 40°48' E 024°42'3 6.5
2018-May-16 06:29N 40°51' E 024°42'0 0.0
2018-May-16 06:00N 40°51' E 024°42'3 5.2
2018-May-16 05:30N 40°49' E 024°41'2 3.3
2018-May-16 05:00N 40°47' E 024°42'4 8.1
2018-May-16 04:30N 40°51' E 024°42'0 0.0
2018-May-15 15:42N 40°51' E 024°42'0 0.1
2018-May-15 15:29N 40°51' E 024°42'3 5.4
2018-May-15 15:00N 40°49' E 024°42'2 4.2
2018-May-15 14:30N 40°47' E 024°42'0 0.0
2018-May-15 14:00N 40°47' E 024°42'0 0.0
2018-May-15 13:30N 40°47' E 024°42'0 0.0
2018-May-15 13:00N 40°47' E 024°42'0 0.0
2018-May-15 12:30N 40°47' E 024°42'0 0.0
2018-May-15 12:00N 40°47' E 024°42'0 0.0
2018-May-15 11:30N 40°47' E 024°42'0 0.0
2018-May-15 11:00N 40°47' E 024°42'0 0.0
2018-May-15 10:30N 40°47' E 024°42'0 0.0
2018-May-15 10:00N 40°47' E 024°42'0 0.0
2018-May-15 09:30N 40°47' E 024°42'1 2.9
2018-May-15 09:00N 40°48' E 024°42'3 6.5
2018-May-15 08:30N 40°51' E 024°42'0 0.0
2018-May-15 08:00N 40°51' E 024°42'3 5.4
2018-May-15 07:30N 40°49' E 024°42'2 4.0
2018-May-15 06:59N 40°47' E 024°42'0 0.0
2018-May-15 06:30N 40°47' E 024°42'0 0.0
2018-May-15 06:00N 40°47' E 024°42'2 3.2
2018-May-15 05:30N 40°48' E 024°42'3 0.2
2018-May-14 13:33N 40°51' E 024°42'0 0.0
2018-May-14 13:30N 40°51' E 024°42'1 1.8
2018-May-14 13:00N 40°51' E 024°41'4 8.0
2018-May-14 12:29N 40°47' E 024°42'0 0.0
2018-May-14 12:00N 40°47' E 024°42'2 3.6
2018-May-14 11:30N 40°49' E 024°42'3 5.7
2018-May-14 11:00N 40°51' E 024°42'0 0.0
2018-May-14 10:30N 40°51' E 024°42'0 0.0
2018-May-14 10:00N 40°51' E 024°42'0 0.0
2018-May-14 09:30N 40°51' E 024°42'3 5.1
2018-May-14 09:00N 40°49' E 024°42'2 4.3
2018-May-14 08:30N 40°47' E 024°42'0 0.0
2018-May-14 08:00N 40°47' E 024°42'1 2.4
2018-May-14 07:30N 40°48' E 024°42'3 6.9
2018-May-14 07:00N 40°51' E 024°42'0 0.0
2018-May-14 06:30N 40°51' E 024°42'3 6.0
2018-May-14 06:00N 40°49' E 024°42'2 3.5
2018-May-14 05:30N 40°47' E 024°42'0 0.0
2018-May-14 05:00N 40°47' E 024°42'0 0.0
2018-May-14 04:30N 40°47' E 024°42'3 7.0
2018-May-14 04:00N 40°50' E 024°41'1 2.8
2018-May-14 03:30N 40°51' E 024°42'1 1.9
2018-May-14 03:00N 40°51' E 024°41'4 8.5
2018-May-14 02:30N 40°47' E 024°42'3 5.4
2018-May-14 02:00N 40°49' E 024°42'2 0.3
2018-May-13 19:12N 40°51' E 024°42'0 0.0
2018-May-13 19:00N 40°51' E 024°42'0 0.1
2018-May-13 18:30N 40°51' E 024°42'0 0.0
2018-May-13 18:00N 40°51' E 024°42'0 0.0
2018-May-13 17:30N 40°51' E 024°42'0 0.0
2018-May-13 17:00N 40°51' E 024°42'0 0.0
2018-May-13 16:30N 40°51' E 024°42'0 0.0
2018-May-13 16:00N 40°51' E 024°42'0 0.0
2018-May-13 15:30N 40°51' E 024°42'0 0.1
2018-May-13 15:00N 40°51' E 024°42'1 1.8
2018-May-13 14:30N 40°51' E 024°41'4 8.4
2018-May-13 14:00N 40°47' E 024°42'0 0.0
2018-May-13 13:30N 40°47' E 024°42'0 0.0
2018-May-13 13:00N 40°47' E 024°42'4 7.0
2018-May-13 12:30N 40°50' E 024°41'1 2.7
2018-May-13 12:00N 40°51' E 024°42'1 1.8
2018-May-13 11:30N 40°51' E 024°41'4 8.8
2018-May-13 11:00N 40°47' E 024°42'0 0.0
2018-May-13 10:30N 40°47' E 024°42'0 0.0
2018-May-13 10:00N 40°47' E 024°42'0 0.0
2018-May-13 09:30N 40°47' E 024°42'0 0.0
2018-May-13 09:00N 40°47' E 024°42'1 2.6
2018-May-13 08:30N 40°48' E 024°42'3 0.2
2018-May-12 10:50N 40°51' E 024°42'1 2.5
2018-May-12 10:30N 40°51' E 024°41'4 8.9
2018-May-12 10:00N 40°47' E 024°42'4 7.3
2018-May-12 09:30N 40°50' E 024°41'1 2.7
2018-May-12 09:01N 40°51' E 024°42'1 1.7
2018-May-12 08:30N 40°51' E 024°41'5 9.1
2018-May-12 08:01N 40°47' E 024°42'0 0.0
2018-May-12 07:31N 40°47' E 024°42'0 0.5
2018-May-12 07:00N 40°47' E 024°43'0 0.0
2018-May-12 06:30N 40°47' E 024°43'0 0.0
2018-May-12 06:01N 40°47' E 024°43'0 0.0
2018-May-12 05:30N 40°47' E 024°43'1 2.8
2018-May-12 05:00N 40°48' E 024°42'3 6.7
2018-May-12 04:30N 40°51' E 024°42'0 0.0
2018-May-11 18:16N 40°51' E 024°42'1 4.5
2018-May-11 18:00N 40°51' E 024°41'4 7.3
2018-May-11 17:30N 40°47' E 024°42'4 8.5
2018-May-11 17:00N 40°51' E 024°42'0 0.0
2018-May-11 16:30N 40°51' E 024°42'1 2.2
2018-May-11 16:00N 40°51' E 024°41'4 8.0
2018-May-11 15:30N 40°47' E 024°42'1 1.4
2018-May-11 15:00N 40°47' E 024°42'4 8.4
2018-May-11 14:30N 40°52' E 024°42'0 0.8
2018-May-11 14:00N 40°51' E 024°42'0 0.0
2018-May-11 13:30N 40°51' E 024°42'0 0.0
2018-May-11 13:00N 40°51' E 024°42'0 0.1
2018-May-11 12:30N 40°51' E 024°42'3 5.8
2018-May-11 12:00N 40°49' E 024°42'2 3.7
2018-May-11 11:30N 40°47' E 024°42'1 1.8
2018-May-11 11:00N 40°48' E 024°42'4 7.8
2018-May-11 10:30N 40°52' E 024°41'  
Track history (hours):
 
Tides and Currents Weather Stations Pressure Air Temp Water Temp Dewpoint Dewpoint Depression Visibility Wind Speed Wind Dir Waves Ship Positions

Stelios Filiagos

Last reported at 2018-May-21 06:30 UTC. Time now 2018-May-21 06:50 UTC.
Position N 40°47' E 024°42'.

Length 106 m; draft 2.6 m.

Type: Passenger vessel. MMSI: 239630600.

Date/timePositionNaut miles runAvg speedWind from/ knotsBaromVisibWave heightAir tempDewpointWater temp
2018-May-21 06:30N 40°47' E 024°42'3 7.0
2018-May-21 06:00N 40°50' E 024°41'1 2.8
2018-May-21 05:30N 40°51' E 024°42'1 1.9
2018-May-21 05:00N 40°51' E 024°41'4 8.9
2018-May-21 04:30N 40°47' E 024°42'0 0.0
2018-May-21 04:00N 40°47' E 024°42'0 0.0
2018-May-21 03:30N 40°47' E 024°42'0 0.0
2018-May-21 03:00N 40°47' E 024°42'4 7.7
2018-May-21 02:30N 40°51' E 024°41'1 2.5
2018-May-21 02:00N 40°51' E 024°42'4 0.3
2018-May-20 11:38N 40°47' E 024°42'0 1.3
2018-May-20 11:30N 40°47' E 024°42'4 7.1
2018-May-20 11:01N 40°50' E 024°41'1 2.9
2018-May-20 10:31N 40°51' E 024°42'1 2.2
2018-May-20 10:00N 40°51' E 024°41'4 8.5
2018-May-20 09:30N 40°47' E 024°42'0 0.0
2018-May-20 09:01N 40°47' E 024°42'1 2.5
2018-May-20 08:31N 40°48' E 024°42'3 6.9
2018-May-20 08:00N 40°51' E 024°42'2 3.2
2018-May-20 07:31N 40°50' E 024°41'2 4.9
2018-May-20 07:00N 40°48' E 024°42'4 7.7
2018-May-20 06:30N 40°51' E 024°42'0 0.0
2018-May-20 06:00N 40°51' E 024°42'3 5.7
2018-May-20 05:30N 40°49' E 024°41'2 4.0
2018-May-20 05:01N 40°47' E 024°42'0 0.0
2018-May-20 04:22N 40°47' E 024°42'0 0.0
2018-May-20 03:57N 40°47' E 024°42'2 4.6
2018-May-20 03:30N 40°49' E 024°41'3 5.6
2018-May-20 03:00N 40°51' E 024°42'0 0.0
2018-May-19 18:55N 40°51' E 024°42'0 0.0
2018-May-19 18:30N 40°51' E 024°42'0 0.0
2018-May-19 18:00N 40°51' E 024°42'0 0.0
2018-May-19 17:30N 40°51' E 024°42'0 0.0
2018-May-19 17:00N 40°51' E 024°42'3 5.7
2018-May-19 16:30N 40°49' E 024°42'2 3.9
2018-May-19 16:00N 40°47' E 024°42'0 0.0
2018-May-19 15:30N 40°47' E 024°42'2 3.2
2018-May-19 15:00N 40°48' E 024°42'3 6.1
2018-May-19 14:29N 40°51' E 024°42'0 0.0
2018-May-19 13:58N 40°51' E 024°42'3 6.0
2018-May-19 13:30N 40°49' E 024°41'2 3.9
2018-May-19 13:00N 40°47' E 024°42'0 0.0
2018-May-19 12:30N 40°47' E 024°42'0 0.0
2018-May-19 12:00N 40°47' E 024°42'0 0.0
2018-May-19 11:30N 40°47' E 024°42'0 0.0
2018-May-19 11:00N 40°47' E 024°42'0 0.0
2018-May-19 10:30N 40°47' E 024°42'0 0.0
2018-May-19 10:00N 40°47' E 024°42'0 0.0
2018-May-19 09:30N 40°47' E 024°42'2 3.4
2018-May-19 09:00N 40°48' E 024°41'3 6.1
2018-May-19 08:30N 40°51' E 024°42'0 0.0
2018-May-19 08:00N 40°51' E 024°42'3 5.5
2018-May-19 07:30N 40°49' E 024°41'2 4.1
2018-May-19 07:00N 40°47' E 024°42'0 0.0
2018-May-19 06:30N 40°47' E 024°42'0 0.0
2018-May-19 05:59N 40°47' E 024°42'2 3.1
2018-May-19 05:30N 40°48' E 024°41'3 6.5
2018-May-19 05:00N 40°51' E 024°42'0 0.0
2018-May-19 04:30N 40°51' E 024°42'3 5.5
2018-May-19 04:00N 40°49' E 024°42'2 0.2
2018-May-18 17:50N 40°47' E 024°42'1 4.6
2018-May-18 17:31N 40°48' E 024°42'3 6.3
2018-May-18 17:00N 40°51' E 024°42'0 0.0
2018-May-18 16:31N 40°51' E 024°42'1 2.1
2018-May-18 16:00N 40°51' E 024°41'4 8.6
2018-May-18 15:31N 40°47' E 024°42'0 0.0
2018-May-18 15:01N 40°47' E 024°42'0 0.0
2018-May-18 14:30N 40°47' E 024°42'0 0.0
2018-May-18 14:01N 40°47' E 024°42'1 2.9
2018-May-18 13:30N 40°48' E 024°42'3 6.4
2018-May-18 13:00N 40°51' E 024°42'0 0.0
2018-May-18 12:30N 40°51' E 024°42'3 5.1
2018-May-18 12:00N 40°49' E 024°41'2 4.4
2018-May-18 11:31N 40°47' E 024°42'0 0.0
2018-May-18 11:01N 40°47' E 024°42'2 3.1
2018-May-18 10:31N 40°48' E 024°41'3 6.5
2018-May-18 10:01N 40°51' E 024°42'0 0.0
2018-May-18 09:30N 40°51' E 024°42'3 5.3
2018-May-18 09:00N 40°49' E 024°42'2 4.2
2018-May-18 08:31N 40°47' E 024°42'2 3.2
2018-May-18 08:00N 40°48' E 024°42'3 6.3
2018-May-18 07:30N 40°51' E 024°42'0 0.0
2018-May-18 07:01N 40°51' E 024°42'3 5.9
2018-May-18 06:30N 40°49' E 024°42'2 3.5
2018-May-18 06:01N 40°47' E 024°42'0 0.0
2018-May-18 05:31N 40°47' E 024°42'0 0.0
2018-May-18 05:01N 40°47' E 024°42'0 0.0
2018-May-18 04:30N 40°47' E 024°42'4 7.1
2018-May-18 04:00N 40°50' E 024°41'1 2.8
2018-May-18 03:30N 40°51' E 024°42'1 1.8
2018-May-18 03:01N 40°51' E 024°41'4 0.4
2018-May-17 16:08N 40°47' E 024°42'0 0.0
2018-May-17 16:00N 40°47' E 024°42'4 7.7
2018-May-17 15:30N 40°51' E 024°41'1 2.5
2018-May-17 15:00N 40°51' E 024°42'1 2.0
2018-May-17 14:30N 40°51' E 024°41'5 9.1
2018-May-17 14:00N 40°47' E 024°42'0 0.0
2018-May-17 13:30N 40°47' E 024°42'0 0.0
2018-May-17 13:00N 40°47' E 024°42'4 7.2
2018-May-17 12:30N 40°50' E 024°41'1 2.8
2018-May-17 12:00N 40°51' E 024°42'1 1.9
2018-May-17 11:30N 40°51' E 024°41'4 8.6
2018-May-17 11:00N 40°47' E 024°42'0 0.0
2018-May-17 10:29N 40°47' E 024°42'0 0.0
2018-May-17 10:00N 40°47' E 024°42'0 0.0
2018-May-17 09:30N 40°47' E 024°42'0 0.0
2018-May-17 09:00N 40°47' E 024°42'0 0.0
2018-May-17 08:30N 40°47' E 024°42'0 0.0
2018-May-17 08:00N 40°47' E 024°42'0 0.0
2018-May-17 07:30N 40°47' E 024°42'0 0.0
2018-May-17 07:00N 40°47' E 024°42'0 0.0
2018-May-17 06:30N 40°47' E 024°42'4 7.4
2018-May-17 06:00N 40°50' E 024°41'1 2.6
2018-May-17 05:30N 40°51' E 024°42'1 1.8
2018-May-17 05:00N 40°51' E 024°41'4 8.8
2018-May-17 04:30N 40°47' E 024°42'0 0.5
2018-May-17 04:00N 40°47' E 024°43'0 0.0
2018-May-16 11:54N 40°47' E 024°43'0 0.6
2018-May-16 11:30N 40°47' E 024°42'4 7.5
2018-May-16 11:00N 40°50' E 024°41'1 2.6
2018-May-16 10:31N 40°51' E 024°42'1 1.9
2018-May-16 10:01N 40°51' E 024°41'4 8.5
2018-May-16 09:30N 40°47' E 024°42'2 3.2
2018-May-16 09:00N 40°48' E 024°42'3 6.5
2018-May-16 08:30N 40°52' E 024°42'5 9.6
2018-May-16 08:00N 40°47' E 024°42'0 0.0
2018-May-16 07:30N 40°47' E 024°42'1 2.7
2018-May-16 07:00N 40°48' E 024°42'3 6.5
2018-May-16 06:29N 40°51' E 024°42'0 0.0
2018-May-16 06:00N 40°51' E 024°42'3 5.2
2018-May-16 05:30N 40°49' E 024°41'2 3.3
2018-May-16 05:00N 40°47' E 024°42'4 8.1
2018-May-16 04:30N 40°51' E 024°42'0 0.0
2018-May-15 15:42N 40°51' E 024°42'0 0.1
2018-May-15 15:29N 40°51' E 024°42'3 5.4
2018-May-15 15:00N 40°49' E 024°42'2 4.2
2018-May-15 14:30N 40°47' E 024°42'0 0.0
2018-May-15 14:00N 40°47' E 024°42'0 0.0
2018-May-15 13:30N 40°47' E 024°42'0 0.0
2018-May-15 13:00N 40°47' E 024°42'0 0.0
2018-May-15 12:30N 40°47' E 024°42'0 0.0
2018-May-15 12:00N 40°47' E 024°42'0 0.0
2018-May-15 11:30N 40°47' E 024°42'0 0.0
2018-May-15 11:00N 40°47' E 024°42'0 0.0
2018-May-15 10:30N 40°47' E 024°42'0 0.0
2018-May-15 10:00N 40°47' E 024°42'0 0.0
2018-May-15 09:30N 40°47' E 024°42'1 2.9
2018-May-15 09:00N 40°48' E 024°42'3 6.5
2018-May-15 08:30N 40°51' E 024°42'0 0.0
2018-May-15 08:00N 40°51' E 024°42'3 5.4
2018-May-15 07:30N 40°49' E 024°42'2 4.0
2018-May-15 06:59N 40°47' E 024°42'0 0.0
2018-May-15 06:30N 40°47' E 024°42'0 0.0
2018-May-15 06:00N 40°47' E 024°42'2 3.2
2018-May-15 05:30N 40°48' E 024°42'3 0.2
2018-May-14 13:33N 40°51' E 024°42'0 0.0
2018-May-14 13:30N 40°51' E 024°42'1 1.8
2018-May-14 13:00N 40°51' E 024°41'4 8.0
2018-May-14 12:29N 40°47' E 024°42'0 0.0
2018-May-14 12:00N 40°47' E 024°42'2 3.6
2018-May-14 11:30N 40°49' E 024°42'3 5.7
2018-May-14 11:00N 40°51' E 024°42'0 0.0
2018-May-14 10:30N 40°51' E 024°42'0 0.0
2018-May-14 10:00N 40°51' E 024°42'0 0.0
2018-May-14 09:30N 40°51' E 024°42'3 5.1
2018-May-14 09:00N 40°49' E 024°42'2 4.3
2018-May-14 08:30N 40°47' E 024°42'0 0.0
2018-May-14 08:00N 40°47' E 024°42'1 2.4
2018-May-14 07:30N 40°48' E 024°42'3 6.9
2018-May-14 07:00N 40°51' E 024°42'0 0.0
2018-May-14 06:30N 40°51' E 024°42'3 6.0
2018-May-14 06:00N 40°49' E 024°42'2 3.5
2018-May-14 05:30N 40°47' E 024°42'0 0.0
2018-May-14 05:00N 40°47' E 024°42'0 0.0
2018-May-14 04:30N 40°47' E 024°42'3 7.0
2018-May-14 04:00N 40°50' E 024°41'1 2.8
2018-May-14 03:30N 40°51' E 024°42'1 1.9
2018-May-14 03:00N 40°51' E 024°41'4 8.5
2018-May-14 02:30N 40°47' E 024°42'3 5.4
2018-May-14 02:00N 40°49' E 024°42'2 0.3
2018-May-13 19:12N 40°51' E 024°42'0 0.0
2018-May-13 19:00N 40°51' E 024°42'0 0.1
2018-May-13 18:30N 40°51' E 024°42'0 0.0
2018-May-13 18:00N 40°51' E 024°42'0 0.0
2018-May-13 17:30N 40°51' E 024°42'0 0.0
2018-May-13 17:00N 40°51' E 024°42'0 0.0
2018-May-13 16:30N 40°51' E 024°42'0 0.0
2018-May-13 16:00N 40°51' E 024°42'0 0.0
2018-May-13 15:30N 40°51' E 024°42'0 0.1
2018-May-13 15:00N 40°51' E 024°42'1 1.8
2018-May-13 14:30N 40°51' E 024°41'4 8.4
2018-May-13 14:00N 40°47' E 024°42'0 0.0
2018-May-13 13:30N 40°47' E 024°42'0 0.0
2018-May-13 13:00N 40°47' E 024°42'4 7.0
2018-May-13 12:30N 40°50' E 024°41'1 2.7
2018-May-13 12:00N 40°51' E 024°42'1 1.8
2018-May-13 11:30N 40°51' E 024°41'4 8.8
2018-May-13 11:00N 40°47' E 024°42'0 0.0
2018-May-13 10:30N 40°47' E 024°42'0 0.0
2018-May-13 10:00N 40°47' E 024°42'0 0.0
2018-May-13 09:30N 40°47' E 024°42'0 0.0
2018-May-13 09:00N 40°47' E 024°42'1 2.6
2018-May-13 08:30N 40°48' E 024°42'3 0.2
2018-May-12 10:50N 40°51' E 024°42'1 2.5
2018-May-12 10:30N 40°51' E 024°41'4 8.9
2018-May-12 10:00N 40°47' E 024°42'4 7.3
2018-May-12 09:30N 40°50' E 024°41'1 2.7
2018-May-12 09:01N 40°51' E 024°42'1 1.7
2018-May-12 08:30N 40°51' E 024°41'5 9.1
2018-May-12 08:01N 40°47' E 024°42'0 0.0
2018-May-12 07:31N 40°47' E 024°42'0 0.5
2018-May-12 07:00N 40°47' E 024°43'0 0.0
2018-May-12 06:30N 40°47' E 024°43'0 0.0
2018-May-12 06:01N 40°47' E 024°43'0 0.0
2018-May-12 05:30N 40°47' E 024°43'1 2.8
2018-May-12 05:00N 40°48' E 024°42'3 6.7
2018-May-12 04:30N 40°51' E 024°42'0 0.0
2018-May-11 18:16N 40°51' E 024°42'1 4.5
2018-May-11 18:00N 40°51' E 024°41'4 7.3
2018-May-11 17:30N 40°47' E 024°42'4 8.5
2018-May-11 17:00N 40°51' E 024°42'0 0.0
2018-May-11 16:30N 40°51' E 024°42'1 2.2
2018-May-11 16:00N 40°51' E 024°41'4 8.0
2018-May-11 15:30N 40°47' E 024°42'1 1.4
2018-May-11 15:00N 40°47' E 024°42'4 8.4
2018-May-11 14:30N 40°52' E 024°42'0 0.8
2018-May-11 14:00N 40°51' E 024°42'0 0.0
2018-May-11 13:30N 40°51' E 024°42'0 0.0
2018-May-11 13:00N 40°51' E 024°42'0 0.1
2018-May-11 12:30N 40°51' E 024°42'3 5.8
2018-May-11 12:00N 40°49' E 024°42'2 3.7
2018-May-11 11:30N 40°47' E 024°42'1 1.8
2018-May-11 11:00N 40°48' E 024°42'4 7.8
2018-May-11 10:30N 40°52' E 024°41'  

Dump ship's entire track history